createdAt,value
2019-03-09T00:00:11.779Z,6.77
2019-03-09T00:02:40.421Z,6.60
2019-03-09T00:05:09.461Z,5.63
2019-03-09T00:07:38.083Z,5.70
2019-03-09T00:10:09.301Z,8.50
2019-03-09T00:12:37.922Z,5.13
2019-03-09T00:15:07.899Z,7.87
2019-03-09T00:17:36.528Z,11.13
2019-03-09T00:20:07.043Z,7.53
2019-03-09T00:22:35.770Z,5.43
2019-03-09T00:25:07.145Z,7.30
2019-03-09T00:27:37.407Z,9.43
2019-03-09T00:30:09.682Z,5.67
2019-03-09T00:32:38.308Z,5.70
2019-03-09T00:35:06.930Z,7.77
2019-03-09T00:37:35.597Z,7.57
2019-03-09T00:40:06.561Z,7.43
2019-03-09T00:42:35.465Z,6.90
2019-03-09T00:45:04.522Z,9.60
2019-03-09T01:01:43.331Z,16.13
2019-03-09T01:04:11.951Z,18.03
2019-03-09T01:06:40.575Z,13.70
2019-03-09T01:09:09.651Z,10.80
2019-03-09T01:11:38.289Z,13.80
2019-03-09T01:14:07.005Z,17.03
2019-03-09T01:16:35.656Z,14.40
2019-03-09T01:19:04.292Z,13.60
2019-03-09T01:21:32.907Z,13.10
2019-03-09T01:24:01.504Z,11.33
2019-03-09T01:26:30.116Z,14.80
2019-03-09T01:28:58.671Z,11.20
2019-03-09T01:31:27.328Z,14.13
2019-03-09T01:33:55.960Z,11.50
2019-03-09T01:36:24.592Z,14.07
2019-03-09T01:38:53.257Z,9.10
2019-03-09T01:41:21.886Z,12.67
2019-03-09T01:43:50.508Z,10.27
2019-03-09T01:46:19.155Z,7.60
2019-03-09T01:48:47.772Z,6.37
2019-03-09T01:51:16.403Z,6.87
2019-03-09T01:53:45.051Z,6.33
2019-03-09T01:56:13.678Z,4.63
2019-03-09T01:58:42.305Z,5.40
2019-03-09T02:01:11.024Z,7.63
2019-03-09T02:03:40.432Z,14.07
2019-03-09T02:06:09.158Z,15.30
2019-03-09T02:08:37.762Z,14.57
2019-03-09T02:11:06.378Z,14.27
2019-03-09T02:13:34.998Z,15.37
2019-03-09T02:16:03.682Z,12.77
2019-03-09T02:18:32.315Z,13.13
2019-03-09T02:21:00.928Z,10.80
2019-03-09T02:23:29.585Z,14.37
2019-03-09T02:25:58.212Z,9.23
2019-03-09T02:28:26.826Z,6.43
2019-03-09T02:30:55.493Z,9.77
2019-03-09T02:33:24.115Z,14.13
2019-03-09T02:35:57.381Z,11.70
2019-03-09T02:38:33.090Z,11.97
2019-03-09T02:41:01.723Z,13.70
2019-03-09T02:43:30.265Z,11.07
2019-03-09T02:45:58.943Z,11.60
2019-03-09T02:48:27.493Z,13.67
2019-03-09T02:50:56.212Z,11.17
2019-03-09T02:53:25.662Z,14.30
2019-03-09T02:55:54.392Z,8.77
2019-03-09T02:58:23.006Z,15.13
2019-03-09T03:00:55.757Z,16.43
2019-03-09T03:03:24.388Z,12.40
2019-03-09T03:05:53.004Z,14.00
2019-03-09T03:08:21.595Z,12.30
2019-03-09T03:10:50.225Z,14.27
2019-03-09T03:13:18.707Z,14.40
2019-03-09T03:15:47.361Z,13.73
2019-03-09T03:18:15.980Z,16.47
2019-03-09T03:20:44.617Z,14.80
2019-03-09T03:23:13.274Z,11.73
2019-03-09T03:25:41.888Z,11.37
2019-03-09T03:28:10.512Z,11.63
2019-03-09T03:30:39.182Z,14.10
2019-03-09T03:33:07.871Z,14.47
2019-03-09T03:35:36.487Z,12.80
2019-03-09T03:38:05.134Z,11.53
2019-03-09T03:40:33.689Z,12.03
2019-03-09T03:43:02.307Z,13.40
2019-03-09T03:45:30.970Z,12.60
2019-03-09T03:47:59.523Z,11.73
2019-03-09T03:50:28.166Z,22.27
2019-03-09T03:52:56.767Z,13.67
2019-03-09T03:55:25.468Z,10.07
2019-03-09T03:57:54.085Z,9.03
2019-03-09T04:00:22.733Z,11.73
2019-03-09T04:02:51.362Z,19.20
2019-03-09T04:05:19.986Z,12.97
2019-03-09T04:07:48.635Z,13.73
2019-03-09T04:10:17.261Z,9.40
2019-03-09T04:12:45.892Z,14.10
2019-03-09T04:15:14.569Z,9.23
2019-03-09T04:17:43.165Z,7.97
2019-03-09T04:20:12.795Z,10.97
2019-03-09T04:22:41.457Z,13.03
2019-03-09T04:25:10.164Z,9.53
2019-03-09T04:27:40.423Z,9.33
2019-03-09T04:30:11.406Z,8.40
2019-03-09T04:32:40.014Z,12.23
2019-03-09T04:35:08.638Z,16.13
2019-03-09T04:37:37.292Z,15.63
2019-03-09T04:40:10.931Z,11.87
2019-03-09T04:42:39.485Z,10.33
2019-03-09T04:45:11.821Z,20.53
2019-03-09T04:47:40.368Z,14.63
2019-03-09T04:50:11.884Z,9.23
2019-03-09T04:52:40.568Z,14.33
2019-03-09T04:55:10.084Z,12.57
2019-03-09T04:57:38.800Z,23.07
2019-03-09T05:00:10.525Z,21.17
2019-03-09T05:02:39.146Z,29.07
2019-03-09T05:05:11.521Z,19.23
2019-03-09T05:07:48.799Z,16.70
2019-03-09T05:10:26.368Z,13.80
2019-03-09T05:12:57.935Z,11.47
2019-03-09T05:15:26.561Z,9.47
2019-03-09T05:17:55.177Z,18.47
2019-03-09T05:20:23.752Z,11.80
2019-03-09T05:22:52.384Z,14.83
2019-03-09T05:25:21.000Z,9.73
2019-03-09T05:27:49.582Z,13.93
2019-03-09T05:30:38.084Z,16.13
2019-03-09T05:33:06.752Z,10.87
2019-03-09T05:35:35.377Z,11.43
2019-03-09T05:38:04.101Z,15.13
2019-03-09T05:40:32.777Z,11.87
2019-03-09T05:43:01.394Z,10.70
2019-03-09T05:45:30.010Z,12.60
2019-03-09T05:47:58.675Z,10.00
2019-03-09T05:50:27.290Z,7.47
2019-03-09T05:53:04.558Z,11.27
2019-03-09T05:55:33.181Z,14.97
2019-03-09T05:58:01.797Z,12.23
2019-03-09T06:00:30.452Z,12.33
2019-03-09T06:02:59.068Z,24.73
2019-03-09T06:05:29.895Z,16.47
2019-03-09T06:07:59.316Z,20.13
2019-03-09T06:10:28.002Z,13.83
2019-03-09T06:12:56.636Z,10.63
2019-03-09T06:15:25.283Z,16.90
2019-03-09T06:17:53.930Z,10.67
2019-03-09T06:20:22.564Z,16.33
2019-03-09T06:22:51.238Z,22.77
2019-03-09T06:25:20.028Z,21.90
2019-03-09T06:27:48.670Z,27.17
2019-03-09T06:30:17.340Z,22.07
2019-03-09T06:33:05.059Z,18.67
2019-03-09T06:35:33.708Z,14.40
2019-03-09T06:38:21.774Z,18.13
2019-03-09T06:40:50.425Z,19.37
2019-03-09T06:43:18.977Z,21.40
2019-03-09T06:45:47.611Z,17.17
2019-03-09T06:48:16.210Z,20.37
2019-03-09T06:50:44.843Z,15.70
2019-03-09T06:53:13.468Z,17.57
2019-03-09T06:55:42.123Z,14.50
2019-03-09T06:58:10.763Z,25.67
2019-03-09T07:00:40.001Z,19.30
2019-03-09T07:03:08.682Z,18.20
2019-03-09T07:05:37.403Z,18.73
2019-03-09T07:08:06.857Z,16.00
2019-03-09T07:10:35.521Z,21.80
2019-03-09T07:13:04.147Z,20.40
2019-03-09T07:15:37.831Z,14.80
2019-03-09T07:18:14.729Z,14.40
2019-03-09T07:20:43.350Z,13.87
2019-03-09T07:23:11.978Z,24.17
2019-03-09T07:25:40.640Z,15.67
2019-03-09T07:28:13.995Z,17.43
2019-03-09T07:30:42.624Z,17.33
2019-03-09T07:33:11.287Z,17.43
2019-03-09T07:35:39.981Z,21.63
2019-03-09T07:38:08.607Z,16.97
2019-03-09T07:40:37.187Z,14.97
2019-03-09T07:43:05.909Z,22.23
2019-03-09T07:45:34.609Z,22.10
2019-03-09T07:48:03.274Z,17.20
2019-03-09T07:50:31.894Z,17.07
2019-03-09T07:53:00.511Z,16.83
2019-03-09T07:55:29.177Z,20.77
2019-03-09T07:58:02.906Z,19.13
2019-03-09T08:00:31.516Z,15.20
2019-03-09T08:03:00.407Z,22.77
2019-03-09T08:05:29.027Z,16.67
2019-03-09T08:07:57.583Z,18.80
2019-03-09T08:10:30.811Z,13.03
2019-03-09T08:12:59.431Z,16.10
2019-03-09T08:15:28.049Z,18.00
2019-03-09T08:17:56.728Z,17.67
2019-03-09T08:20:25.355Z,17.40
2019-03-09T08:22:53.970Z,6.80
2019-03-09T08:25:24.394Z,5.87
2019-03-09T08:27:53.088Z,3.77
2019-03-09T08:30:23.214Z,2.83
2019-03-09T08:32:51.870Z,5.17
2019-03-09T08:35:21.198Z,3.17
2019-03-09T08:37:50.709Z,5.90
2019-03-09T08:40:20.762Z,4.10
2019-03-09T08:42:49.373Z,8.97
2019-03-09T08:45:19.287Z,3.80
2019-03-09T08:47:52.161Z,3.80
2019-03-09T08:50:20.751Z,3.57
2019-03-09T08:52:49.399Z,4.03
2019-03-09T08:55:18.676Z,2.90
2019-03-09T08:57:47.312Z,3.00
2019-03-09T09:00:33.807Z,3.07
2019-03-09T09:03:02.426Z,4.93
2019-03-09T09:05:31.038Z,5.97
2019-03-09T09:07:59.704Z,3.40
2019-03-09T09:10:28.351Z,7.17
2019-03-09T09:12:56.887Z,6.20
2019-03-09T09:15:25.548Z,5.20
2019-03-09T09:17:54.168Z,5.53
2019-03-09T09:20:25.696Z,2.70
2019-03-09T09:22:54.372Z,5.00
2019-03-09T09:25:22.979Z,3.87
2019-03-09T09:27:52.217Z,5.70
2019-03-09T09:30:28.395Z,7.33
2019-03-09T09:32:56.990Z,4.83
2019-03-09T09:35:25.688Z,5.03
2019-03-09T09:37:54.343Z,8.27
2019-03-09T09:40:27.408Z,5.27
2019-03-09T09:42:56.207Z,3.20
2019-03-09T09:45:25.043Z,2.10
2019-03-09T09:47:53.659Z,8.67
2019-03-09T09:50:22.271Z,9.70
2019-03-09T09:52:51.431Z,6.53
2019-03-09T09:55:20.452Z,3.27
2019-03-09T09:57:49.080Z,2.10
2019-03-09T10:00:25.607Z,3.17
2019-03-09T10:02:54.188Z,4.13
2019-03-09T10:05:23.402Z,6.07
2019-03-09T10:07:52.260Z,6.20
2019-03-09T10:10:21.982Z,7.70
2019-03-09T10:12:51.455Z,5.20
2019-03-09T10:15:28.362Z,3.93
2019-03-09T10:17:56.982Z,4.20
2019-03-09T10:20:25.594Z,2.77
2019-03-09T10:23:03.674Z,7.27
2019-03-09T10:25:24.593Z,2.83
2019-03-09T10:27:53.145Z,6.97
2019-03-09T10:30:23.284Z,2.70
2019-03-09T10:32:52.000Z,5.43
2019-03-09T10:35:20.607Z,4.83
2019-03-09T10:37:49.876Z,9.70
2019-03-09T10:40:19.387Z,5.33
2019-03-09T10:42:48.002Z,2.87
2019-03-09T10:45:18.540Z,6.10
2019-03-09T10:47:47.159Z,7.77
2019-03-09T10:50:19.604Z,5.20
2019-03-09T10:52:48.275Z,6.17
2019-03-09T10:55:28.130Z,13.17
2019-03-09T10:57:56.800Z,7.07
2019-03-09T11:00:30.857Z,5.50
2019-03-09T11:02:59.541Z,5.43
2019-03-09T11:05:28.258Z,4.53
2019-03-09T11:07:56.983Z,7.17
2019-03-09T11:10:27.990Z,5.20
2019-03-09T11:12:57.686Z,5.73
2019-03-09T11:15:26.311Z,13.60
2019-03-09T11:17:54.942Z,3.93
2019-03-09T11:20:23.695Z,9.93
2019-03-09T11:22:52.320Z,8.53
2019-03-09T11:25:20.932Z,5.80
2019-03-09T11:27:49.592Z,12.47
2019-03-09T11:30:20.850Z,8.27
2019-03-09T11:32:49.468Z,5.73
2019-03-09T11:35:18.142Z,6.27
2019-03-09T11:37:46.764Z,8.50
2019-03-09T11:40:15.696Z,8.77
2019-03-09T11:42:44.366Z,14.30
2019-03-09T11:45:15.896Z,7.90
2019-03-09T11:47:44.505Z,5.93
2019-03-09T11:50:15.224Z,4.80
2019-03-09T11:52:43.855Z,4.03
2019-03-09T11:55:13.981Z,7.10
2019-03-09T11:57:42.629Z,3.67
2019-03-09T12:00:15.831Z,4.10
2019-03-09T12:02:44.455Z,5.50
2019-03-09T12:05:13.108Z,5.87
2019-03-09T12:07:41.732Z,4.37
2019-03-09T12:10:11.467Z,9.60
2019-03-09T12:12:40.129Z,7.33
2019-03-09T12:15:11.409Z,6.27
2019-03-09T12:17:40.028Z,5.07
2019-03-09T12:20:10.180Z,7.70
2019-03-09T12:22:38.802Z,5.37
2019-03-09T12:25:10.176Z,4.93
2019-03-09T12:27:38.832Z,4.77
2019-03-09T12:30:10.222Z,4.63
2019-03-09T12:32:38.831Z,8.93
2019-03-09T12:35:08.582Z,9.80
2019-03-09T12:37:37.210Z,5.00
2019-03-09T12:40:11.467Z,9.30
2019-03-09T12:42:40.126Z,6.67
2019-03-09T12:45:10.446Z,5.13
2019-03-09T12:47:39.075Z,7.40
2019-03-09T12:50:13.819Z,4.03
2019-03-09T12:52:42.439Z,8.80
2019-03-09T12:55:11.172Z,4.63
2019-03-09T12:57:39.821Z,4.97
2019-03-09T13:00:17.273Z,4.97
2019-03-09T13:02:45.945Z,4.73
2019-03-09T13:05:15.965Z,5.97
2019-03-09T13:07:44.570Z,3.20
2019-03-09T13:10:13.829Z,5.10
2019-03-09T13:12:42.443Z,4.00
2019-03-09T13:15:11.570Z,3.57
2019-03-09T13:17:40.229Z,6.30
2019-03-09T13:20:10.922Z,5.47
2019-03-09T13:22:39.545Z,6.90
2019-03-09T13:25:09.003Z,3.73
2019-03-09T13:27:37.619Z,7.63
2019-03-09T13:30:12.055Z,6.03
2019-03-09T13:32:40.643Z,4.77
2019-03-09T13:35:09.263Z,4.37
2019-03-09T13:37:37.885Z,7.17
2019-03-09T13:40:08.735Z,4.93
2019-03-09T13:42:37.361Z,8.30
2019-03-09T13:45:08.877Z,3.60
2019-03-09T13:47:37.549Z,4.47
2019-03-09T13:50:12.209Z,3.43
2019-03-09T13:52:40.834Z,6.13
2019-03-09T13:55:10.786Z,7.53
2019-03-09T13:57:39.409Z,3.57
2019-03-09T14:00:13.243Z,3.43
2019-03-09T14:02:42.246Z,6.77
2019-03-09T14:05:10.948Z,10.60
2019-03-09T14:07:39.610Z,13.33
2019-03-09T14:10:10.753Z,8.53
2019-03-09T14:12:39.382Z,6.03
2019-03-09T14:15:13.730Z,4.10
2019-03-09T14:17:42.798Z,6.10
2019-03-09T14:20:13.026Z,4.23
2019-03-09T14:22:41.642Z,5.37
2019-03-09T14:25:12.460Z,6.03
2019-03-09T14:27:41.158Z,4.20
2019-03-09T14:30:19.404Z,3.93
2019-03-09T14:32:48.024Z,4.83
2019-03-09T14:35:16.643Z,4.80
2019-03-09T14:37:45.302Z,5.10
2019-03-09T14:40:15.592Z,4.00
2019-03-09T14:42:44.201Z,2.80
2019-03-09T14:45:17.373Z,4.23
2019-03-09T14:47:45.998Z,5.67
2019-03-09T14:50:14.819Z,13.30
2019-03-09T14:52:43.496Z,3.30
2019-03-09T14:55:13.132Z,3.40
2019-03-09T14:57:41.752Z,5.97
2019-03-09T15:00:27.038Z,2.37
2019-03-09T15:02:55.667Z,5.83
2019-03-09T15:05:24.278Z,9.37
2019-03-09T15:07:52.939Z,2.23
2019-03-09T15:10:21.561Z,5.57
2019-03-09T15:12:50.168Z,5.83
2019-03-09T15:15:22.169Z,11.47
2019-03-09T15:17:50.796Z,7.57
2019-03-09T15:20:19.422Z,6.33
2019-03-09T15:22:48.084Z,3.77
2019-03-09T15:25:18.006Z,13.20
2019-03-09T15:27:46.624Z,3.87
2019-03-09T15:30:21.465Z,11.50
2019-03-09T15:32:50.087Z,4.93
2019-03-09T15:35:18.910Z,6.87
2019-03-09T15:37:47.576Z,4.33
2019-03-09T15:40:18.235Z,5.93
2019-03-09T15:42:46.865Z,9.53
2019-03-09T15:45:17.397Z,8.00
2019-03-09T15:47:46.016Z,4.10
2019-03-09T15:50:16.438Z,6.93
2019-03-09T15:52:45.107Z,6.37
2019-03-09T15:55:13.805Z,7.07
2019-03-09T15:57:42.501Z,7.87
2019-03-09T16:00:22.900Z,4.87
2019-03-09T16:02:51.516Z,5.83
2019-03-09T16:05:20.142Z,10.97
2019-03-09T16:07:48.726Z,4.57
2019-03-09T16:10:23.627Z,5.30
2019-03-09T16:12:52.260Z,4.60
2019-03-09T16:15:20.996Z,8.63
2019-03-09T16:17:49.677Z,6.43
2019-03-09T16:20:28.162Z,6.30
2019-03-09T16:22:56.781Z,8.30
2019-03-09T16:25:25.413Z,8.87
2019-03-09T16:27:54.137Z,6.23
2019-03-09T16:30:23.265Z,8.67
2019-03-09T16:32:51.884Z,15.80
2019-03-09T16:35:20.533Z,8.47
2019-03-09T16:37:50.723Z,11.07
2019-03-09T16:40:20.740Z,11.33
2019-03-09T16:42:49.406Z,6.97
2019-03-09T16:45:18.026Z,9.40
2019-03-09T16:47:46.643Z,7.47
2019-03-09T16:50:16.516Z,5.50
2019-03-09T16:52:45.143Z,9.93
2019-03-09T16:55:13.978Z,8.50
2019-03-09T16:57:42.637Z,6.70
2019-03-09T17:00:21.820Z,14.00
2019-03-09T17:02:50.483Z,7.77
2019-03-09T17:05:19.099Z,11.37
2019-03-09T17:07:47.715Z,18.93
2019-03-09T17:10:19.142Z,10.60
2019-03-09T17:12:47.931Z,14.07
2019-03-09T17:15:25.049Z,9.27
2019-03-09T17:17:53.675Z,12.70
2019-03-09T17:20:22.302Z,17.53
2019-03-09T17:22:50.890Z,15.03
2019-03-09T17:25:19.507Z,16.07
2019-03-09T17:27:48.134Z,13.57
2019-03-09T17:30:20.509Z,21.23
2019-03-09T17:32:49.149Z,14.57
2019-03-09T17:35:17.782Z,18.13
2019-03-09T17:37:46.443Z,15.57
2019-03-09T17:40:16.904Z,8.60
2019-03-09T17:42:45.621Z,11.70
2019-03-09T17:45:25.120Z,8.60
2019-03-09T17:47:53.737Z,8.40
2019-03-09T17:50:22.366Z,5.63
2019-03-09T17:52:51.026Z,13.53
2019-03-09T17:55:19.648Z,6.97
2019-03-09T17:57:48.266Z,7.37
2019-03-09T18:00:28.742Z,12.80
2019-03-09T18:02:57.334Z,6.60
2019-03-09T18:05:25.960Z,7.87
2019-03-09T18:07:54.609Z,11.20
2019-03-09T18:10:46.813Z,13.30
2019-03-09T18:13:15.582Z,7.93
2019-03-09T18:15:44.206Z,6.93
2019-03-09T18:18:12.842Z,8.10
2019-03-09T18:20:41.506Z,11.13
2019-03-09T18:23:10.136Z,14.87
2019-03-09T18:25:38.759Z,8.73
2019-03-09T18:28:07.473Z,6.83
2019-03-09T18:30:36.094Z,5.90
2019-03-09T18:33:04.782Z,6.13
2019-03-09T18:35:33.432Z,8.20
2019-03-09T18:38:02.073Z,8.17
2019-03-09T18:40:30.698Z,9.93
2019-03-09T18:42:59.352Z,21.30
2019-03-09T18:45:27.977Z,19.50
2019-03-09T18:47:56.595Z,16.83
2019-03-09T18:50:25.302Z,18.87
2019-03-09T18:52:54.059Z,22.37
2019-03-09T18:55:22.675Z,29.77
2019-03-09T18:57:51.341Z,22.83
2019-03-09T19:00:20.787Z,29.03
2019-03-09T19:02:49.505Z,19.97
2019-03-09T19:05:18.281Z,24.33
2019-03-09T19:07:46.970Z,15.17
2019-03-09T19:10:25.333Z,10.20
2019-03-09T19:12:53.868Z,7.63
2019-03-09T19:15:22.491Z,8.37
2019-03-09T19:17:51.150Z,11.97
2019-03-09T19:20:21.618Z,7.73
2019-03-09T19:22:50.309Z,8.63
2019-03-09T19:25:18.976Z,15.60
2019-03-09T19:27:47.607Z,16.43
2019-03-09T19:30:22.954Z,14.77
2019-03-09T19:32:59.985Z,15.20
2019-03-09T19:35:21.870Z,15.63
2019-03-09T19:37:50.494Z,15.90
2019-03-09T19:40:21.031Z,122.83
2019-03-09T19:42:49.663Z,64.93
2019-03-09T19:45:21.678Z,57.83
2019-03-09T19:47:50.334Z,26.00
2019-03-09T19:50:22.424Z,21.43
2019-03-09T19:52:51.052Z,20.23
2019-03-09T19:55:19.724Z,12.07
2019-03-09T19:57:48.350Z,13.53
2019-03-09T20:00:21.077Z,20.87
2019-03-09T20:02:49.727Z,13.70
2019-03-09T20:05:18.341Z,14.30
2019-03-09T20:07:46.961Z,14.83
2019-03-09T20:10:19.625Z,19.60
2019-03-09T20:12:48.245Z,13.33
2019-03-09T20:15:20.556Z,13.87
2019-03-09T20:17:49.210Z,15.23
2019-03-09T20:20:20.100Z,9.50
2019-03-09T20:22:48.727Z,9.40
2019-03-09T20:25:17.380Z,13.90
2019-03-09T20:27:46.007Z,15.80
2019-03-09T20:30:19.297Z,13.07
2019-03-09T20:32:48.102Z,11.13
2019-03-09T20:35:17.573Z,15.67
2019-03-09T20:37:46.200Z,10.50
2019-03-09T20:40:18.449Z,15.10
2019-03-09T20:42:47.084Z,13.63
2019-03-09T20:45:16.881Z,14.03
2019-03-09T20:47:45.543Z,14.50
2019-03-09T20:50:15.756Z,13.33
2019-03-09T20:52:44.385Z,13.50
2019-03-09T20:55:13.156Z,16.10
2019-03-09T20:57:41.783Z,14.17
2019-03-09T21:00:15.810Z,14.30
2019-03-09T21:02:44.475Z,11.20
2019-03-09T21:05:13.300Z,12.27
2019-03-09T21:07:41.842Z,16.67
2019-03-09T21:10:13.148Z,11.47
2019-03-09T21:13:04.490Z,11.67
2019-03-09T21:15:33.252Z,8.83
2019-03-09T21:18:01.861Z,11.57
2019-03-09T21:20:32.076Z,10.70
2019-03-09T21:23:00.722Z,8.47
2019-03-09T21:25:29.349Z,12.03
2019-03-09T21:27:57.968Z,9.53
2019-03-09T21:30:28.256Z,8.60
2019-03-09T21:32:56.818Z,8.90
2019-03-09T21:35:26.290Z,12.93
2019-03-09T21:37:54.946Z,11.23
2019-03-09T21:40:23.630Z,8.03
2019-03-09T21:42:52.247Z,6.53
2019-03-09T21:45:21.037Z,9.87
2019-03-09T21:47:49.670Z,9.70
2019-03-09T21:50:18.602Z,7.77
2019-03-09T21:52:47.256Z,9.30
2019-03-09T21:55:16.871Z,7.53
2019-03-09T21:57:45.490Z,11.87
2019-03-09T22:00:21.024Z,8.70
2019-03-09T22:02:50.505Z,6.27
2019-03-09T22:05:19.343Z,9.23
2019-03-09T22:07:48.099Z,9.77
2019-03-09T22:10:16.728Z,10.03
2019-03-09T22:12:45.354Z,9.13
2019-03-09T22:15:17.704Z,8.10
2019-03-09T22:17:46.331Z,5.93
2019-03-09T22:20:15.433Z,5.70
2019-03-09T22:22:44.194Z,6.63
2019-03-09T22:25:16.434Z,10.30
2019-03-09T22:27:45.053Z,6.47
2019-03-09T22:30:16.614Z,6.33
2019-03-09T22:32:45.166Z,6.10
2019-03-09T22:35:14.585Z,11.40
2019-03-09T22:37:43.926Z,10.80
2019-03-09T22:40:16.712Z,6.20
2019-03-09T22:42:45.437Z,12.53
2019-03-09T22:45:15.112Z,11.83
2019-03-09T22:47:43.724Z,6.53
2019-03-09T22:50:15.210Z,5.20
2019-03-09T22:52:43.864Z,5.07
2019-03-09T22:55:12.476Z,7.23
2019-03-09T22:57:41.091Z,4.97
2019-03-09T23:00:12.807Z,6.03
2019-03-09T23:02:41.430Z,6.70
2019-03-09T23:05:11.265Z,7.33
2019-03-09T23:07:39.912Z,6.17
2019-03-09T23:10:11.578Z,4.47
2019-03-09T23:12:40.194Z,8.73
2019-03-09T23:15:11.656Z,6.40
2019-03-09T23:17:40.267Z,5.13
2019-03-09T23:20:10.888Z,4.87
2019-03-09T23:22:39.647Z,4.37
2019-03-09T23:25:08.962Z,4.60
2019-03-09T23:27:37.575Z,6.03
2019-03-09T23:30:17.350Z,9.10
2019-03-09T23:32:45.995Z,6.03
2019-03-09T23:35:14.881Z,3.63
2019-03-09T23:37:44.978Z,4.17
2019-03-09T23:40:15.601Z,2.87
2019-03-09T23:42:44.300Z,5.97
2019-03-09T23:45:15.263Z,5.43
2019-03-09T23:47:43.886Z,4.77
2019-03-09T23:50:14.325Z,3.77
2019-03-09T23:52:42.987Z,4.30
2019-03-09T23:55:21.448Z,5.20
2019-03-09T23:57:42.451Z,4.23
